sensor_id;sensor_type;location;lat;lon;timestamp;temperature;humidity
71098;SHT35;58754;47.622;-2.986;2023-05-31T00:00:03;23.59;54.32
71098;SHT35;58754;47.622;-2.986;2023-05-31T00:02:29;23.59;54.35
71098;SHT35;58754;47.622;-2.986;2023-05-31T00:04:55;23.60;54.27
71098;SHT35;58754;47.622;-2.986;2023-05-31T00:07:20;23.60;54.33
71098;SHT35;58754;47.622;-2.986;2023-05-31T00:09:46;23.56;54.28
71098;SHT35;58754;47.622;-2.986;2023-05-31T00:12:12;23.59;54.30
71098;SHT35;58754;47.622;-2.986;2023-05-31T00:14:37;23.60;54.26
71098;SHT35;58754;47.622;-2.986;2023-05-31T00:17:03;23.60;54.24
71098;SHT35;58754;47.622;-2.986;2023-05-31T00:19:29;23.58;54.22
71098;SHT35;58754;47.622;-2.986;2023-05-31T00:21:55;23.56;54.21
71098;SHT35;58754;47.622;-2.986;2023-05-31T00:24:21;23.58;54.21
71098;SHT35;58754;47.622;-2.986;2023-05-31T00:26:47;23.58;54.19
71098;SHT35;58754;47.622;-2.986;2023-05-31T00:29:12;23.58;54.17
71098;SHT35;58754;47.622;-2.986;2023-05-31T00:31:38;23.58;54.19
71098;SHT35;58754;47.622;-2.986;2023-05-31T00:34:04;23.59;54.14
71098;SHT35;58754;47.622;-2.986;2023-05-31T00:36:30;23.58;54.14
71098;SHT35;58754;47.622;-2.986;2023-05-31T00:38:55;23.56;54.17
71098;SHT35;58754;47.622;-2.986;2023-05-31T00:41:21;23.58;54.18
71098;SHT35;58754;47.622;-2.986;2023-05-31T00:43:48;23.58;54.14
71098;SHT35;58754;47.622;-2.986;2023-05-31T00:46:30;23.55;54.13
71098;SHT35;58754;47.622;-2.986;2023-05-31T00:48:56;23.56;54.10
71098;SHT35;58754;47.622;-2.986;2023-05-31T00:51:24;23.56;54.10
71098;SHT35;58754;47.622;-2.986;2023-05-31T00:53:53;23.55;54.04
71098;SHT35;58754;47.622;-2.986;2023-05-31T00:56:20;23.55;54.03
71098;SHT35;58754;47.622;-2.986;2023-05-31T00:58:47;23.55;53.97
71098;SHT35;58754;47.622;-2.986;2023-05-31T01:01:14;23.53;54.04
71098;SHT35;58754;47.622;-2.986;2023-05-31T01:03:41;23.53;54.01
71098;SHT35;58754;47.622;-2.986;2023-05-31T01:06:06;23.52;53.99
71098;SHT35;58754;47.622;-2.986;2023-05-31T01:08:34;23.53;53.99
71098;SHT35;58754;47.622;-2.986;2023-05-31T01:11:29;23.55;54.05
71098;SHT35;58754;47.622;-2.986;2023-05-31T01:16:32;23.51;53.97
71098;SHT35;58754;47.622;-2.986;2023-05-31T01:19:04;23.52;54.00
71098;SHT35;58754;47.622;-2.986;2023-05-31T01:21:58;23.51;53.97
71098;SHT35;58754;47.622;-2.986;2023-05-31T01:24:45;23.48;54.00
71098;SHT35;58754;47.622;-2.986;2023-05-31T01:27:19;23.52;53.90
71098;SHT35;58754;47.622;-2.986;2023-05-31T01:29:46;23.48;53.89
71098;SHT35;58754;47.622;-2.986;2023-05-31T01:32:14;23.51;53.88
71098;SHT35;58754;47.622;-2.986;2023-05-31T01:34:44;23.51;53.92
71098;SHT35;58754;47.622;-2.986;2023-05-31T01:37:10;23.51;53.94
71098;SHT35;58754;47.622;-2.986;2023-05-31T01:39:36;23.48;53.91
71098;SHT35;58754;47.622;-2.986;2023-05-31T01:42:03;23.51;53.86
71098;SHT35;58754;47.622;-2.986;2023-05-31T01:44:30;23.49;53.92
71098;SHT35;58754;47.622;-2.986;2023-05-31T01:46:58;23.46;53.92
71098;SHT35;58754;47.622;-2.986;2023-05-31T01:49:24;23.49;53.87
71098;SHT35;58754;47.622;-2.986;2023-05-31T01:51:50;23.49;53.87
71098;SHT35;58754;47.622;-2.986;2023-05-31T01:54:17;23.48;53.84
71098;SHT35;58754;47.622;-2.986;2023-05-31T01:56:43;23.48;53.84
71098;SHT35;58754;47.622;-2.986;2023-05-31T01:59:11;23.46;53.86
71098;SHT35;58754;47.622;-2.986;2023-05-31T02:01:38;23.46;53.86
71098;SHT35;58754;47.622;-2.986;2023-05-31T02:04:04;23.48;53.80
71098;SHT35;58754;47.622;-2.986;2023-05-31T02:06:30;23.48;53.82
71098;SHT35;58754;47.622;-2.986;2023-05-31T02:09:00;23.48;53.79
71098;SHT35;58754;47.622;-2.986;2023-05-31T02:11:26;23.46;53.81
71098;SHT35;58754;47.622;-2.986;2023-05-31T02:13:52;23.46;53.80
71098;SHT35;58754;47.622;-2.986;2023-05-31T02:16:17;23.42;53.83
71098;SHT35;58754;47.622;-2.986;2023-05-31T02:18:44;23.45;53.73
71098;SHT35;58754;47.622;-2.986;2023-05-31T02:21:10;23.42;53.78
71098;SHT35;58754;47.622;-2.986;2023-05-31T02:23:36;23.42;53.79
71098;SHT35;58754;47.622;-2.986;2023-05-31T02:26:01;23.43;53.73
71098;SHT35;58754;47.622;-2.986;2023-05-31T02:28:29;23.42;53.76
71098;SHT35;58754;47.622;-2.986;2023-05-31T02:30:59;23.42;53.76
71098;SHT35;58754;47.622;-2.986;2023-05-31T02:33:25;23.43;53.75
71098;SHT35;58754;47.622;-2.986;2023-05-31T02:35:52;23.42;53.77
71098;SHT35;58754;47.622;-2.986;2023-05-31T02:38:19;23.41;53.73
71098;SHT35;58754;47.622;-2.986;2023-05-31T02:40:45;23.39;53.72
71098;SHT35;58754;47.622;-2.986;2023-05-31T02:43:11;23.41;53.73
71098;SHT35;58754;47.622;-2.986;2023-05-31T02:45:37;23.43;53.73
71098;SHT35;58754;47.622;-2.986;2023-05-31T02:48:03;23.41;53.71
71098;SHT35;58754;47.622;-2.986;2023-05-31T02:50:31;23.41;53.72
71098;SHT35;58754;47.622;-2.986;2023-05-31T02:52:56;23.39;53.69
71098;SHT35;58754;47.622;-2.986;2023-05-31T02:55:22;23.42;53.74
71098;SHT35;58754;47.622;-2.986;2023-05-31T02:57:48;23.38;53.71
71098;SHT35;58754;47.622;-2.986;2023-05-31T03:00:16;23.38;53.64
71098;SHT35;58754;47.622;-2.986;2023-05-31T03:02:43;23.38;53.73
71098;SHT35;58754;47.622;-2.986;2023-05-31T03:05:08;23.39;53.69
71098;SHT35;58754;47.622;-2.986;2023-05-31T03:07:35;23.38;53.67
71098;SHT35;58754;47.622;-2.986;2023-05-31T03:10:01;23.38;53.64
71098;SHT35;58754;47.622;-2.986;2023-05-31T03:12:32;23.35;53.71
71098;SHT35;58754;47.622;-2.986;2023-05-31T03:14:58;23.37;53.67
71098;SHT35;58754;47.622;-2.986;2023-05-31T03:17:24;23.37;53.73
71098;SHT35;58754;47.622;-2.986;2023-05-31T03:19:50;23.37;53.66
71098;SHT35;58754;47.622;-2.986;2023-05-31T03:22:16;23.37;53.64
71098;SHT35;58754;47.622;-2.986;2023-05-31T03:24:42;23.35;53.68
71098;SHT35;58754;47.622;-2.986;2023-05-31T03:27:07;23.34;53.61
71098;SHT35;58754;47.622;-2.986;2023-05-31T03:29:36;23.35;53.67
71098;SHT35;58754;47.622;-2.986;2023-05-31T03:32:02;23.35;53.70
71098;SHT35;58754;47.622;-2.986;2023-05-31T03:34:28;23.34;53.73
71098;SHT35;58754;47.622;-2.986;2023-05-31T03:36:54;23.34;53.66
71098;SHT35;58754;47.622;-2.986;2023-05-31T03:39:20;23.34;53.67
71098;SHT35;58754;47.622;-2.986;2023-05-31T03:41:46;23.34;53.68
71098;SHT35;58754;47.622;-2.986;2023-05-31T03:44:12;23.31;53.72
71098;SHT35;58754;47.622;-2.986;2023-05-31T03:46:37;23.34;53.66
71098;SHT35;58754;47.622;-2.986;2023-05-31T03:49:03;23.32;53.66
71098;SHT35;58754;47.622;-2.986;2023-05-31T03:51:31;23.34;53.70
71098;SHT35;58754;47.622;-2.986;2023-05-31T03:53:57;23.32;53.67
71098;SHT35;58754;47.622;-2.986;2023-05-31T03:56:23;23.31;53.70
71098;SHT35;58754;47.622;-2.986;2023-05-31T03:58:48;23.31;53.69
71098;SHT35;58754;47.622;-2.986;2023-05-31T04:01:14;23.32;53.70
71098;SHT35;58754;47.622;-2.986;2023-05-31T04:03:41;23.31;53.66
71098;SHT35;58754;47.622;-2.986;2023-05-31T04:06:06;23.31;53.68
71098;SHT35;58754;47.622;-2.986;2023-05-31T04:08:32;23.34;53.64
71098;SHT35;58754;47.622;-2.986;2023-05-31T04:10:58;23.29;53.69
71098;SHT35;58754;47.622;-2.986;2023-05-31T04:13:23;23.26;53.70
71098;SHT35;58754;47.622;-2.986;2023-05-31T04:15:49;23.29;53.69
71098;SHT35;58754;47.622;-2.986;2023-05-31T04:18:15;23.29;53.68
71098;SHT35;58754;47.622;-2.986;2023-05-31T04:20:41;23.28;53.65
71098;SHT35;58754;47.622;-2.986;2023-05-31T04:23:07;23.28;53.68
71098;SHT35;58754;47.622;-2.986;2023-05-31T04:25:32;23.29;53.70
71098;SHT35;58754;47.622;-2.986;2023-05-31T04:27:58;23.29;53.67
71098;SHT35;58754;47.622;-2.986;2023-05-31T04:30:24;23.25;53.68
71098;SHT35;58754;47.622;-2.986;2023-05-31T04:32:50;23.25;53.68
71098;SHT35;58754;47.622;-2.986;2023-05-31T04:35:18;23.25;53.72
71098;SHT35;58754;47.622;-2.986;2023-05-31T04:37:44;23.25;53.67
71098;SHT35;58754;47.622;-2.986;2023-05-31T04:40:10;23.22;53.74
71098;SHT35;58754;47.622;-2.986;2023-05-31T04:42:36;23.25;53.65
71098;SHT35;58754;47.622;-2.986;2023-05-31T04:45:02;23.24;53.73
71098;SHT35;58754;47.622;-2.986;2023-05-31T04:47:33;23.25;53.69
71098;SHT35;58754;47.622;-2.986;2023-05-31T04:49:59;23.25;53.66
71098;SHT35;58754;47.622;-2.986;2023-05-31T04:52:29;23.24;53.73
71098;SHT35;58754;47.622;-2.986;2023-05-31T04:54:58;23.26;53.71
71098;SHT35;58754;47.622;-2.986;2023-05-31T04:57:25;23.22;53.76
71098;SHT35;58754;47.622;-2.986;2023-05-31T04:59:52;23.19;53.72
71098;SHT35;58754;47.622;-2.986;2023-05-31T05:02:18;23.21;53.72
71098;SHT35;58754;47.622;-2.986;2023-05-31T05:04:45;23.24;53.71
71098;SHT35;58754;47.622;-2.986;2023-05-31T05:07:11;23.22;53.68
71098;SHT35;58754;47.622;-2.986;2023-05-31T05:09:37;23.21;53.71
71098;SHT35;58754;47.622;-2.986;2023-05-31T05:12:03;23.19;53.72
71098;SHT35;58754;47.622;-2.986;2023-05-31T05:14:30;23.19;53.72
71098;SHT35;58754;47.622;-2.986;2023-05-31T05:16:56;23.19;53.73
71098;SHT35;58754;47.622;-2.986;2023-05-31T05:19:22;23.19;53.79
71098;SHT35;58754;47.622;-2.986;2023-05-31T05:21:47;23.19;53.76
71098;SHT35;58754;47.622;-2.986;2023-05-31T05:24:13;23.19;53.73
71098;SHT35;58754;47.622;-2.986;2023-05-31T05:26:40;23.18;53.74
71098;SHT35;58754;47.622;-2.986;2023-05-31T05:29:06;23.18;53.75
71098;SHT35;58754;47.622;-2.986;2023-05-31T05:31:32;23.18;53.79
71098;SHT35;58754;47.622;-2.986;2023-05-31T05:33:57;23.17;53.76
71098;SHT35;58754;47.622;-2.986;2023-05-31T05:36:23;23.18;53.72
71098;SHT35;58754;47.622;-2.986;2023-05-31T05:38:49;23.18;53.74
71098;SHT35;58754;47.622;-2.986;2023-05-31T05:41:15;23.18;53.80
71098;SHT35;58754;47.622;-2.986;2023-05-31T05:43:41;23.17;53.75
71098;SHT35;58754;47.622;-2.986;2023-05-31T05:46:07;23.15;53.77
71098;SHT35;58754;47.622;-2.986;2023-05-31T05:48:33;23.17;53.74
71098;SHT35;58754;47.622;-2.986;2023-05-31T05:50:59;23.18;53.78
71098;SHT35;58754;47.622;-2.986;2023-05-31T05:53:25;23.17;53.80
71098;SHT35;58754;47.622;-2.986;2023-05-31T05:55:52;23.15;53.79
71098;SHT35;58754;47.622;-2.986;2023-05-31T05:58:19;23.14;53.77
71098;SHT35;58754;47.622;-2.986;2023-05-31T06:00:45;23.14;53.77
71098;SHT35;58754;47.622;-2.986;2023-05-31T06:03:12;23.15;53.79
71098;SHT35;58754;47.622;-2.986;2023-05-31T06:05:38;23.14;53.76
71098;SHT35;58754;47.622;-2.986;2023-05-31T06:08:04;23.15;53.80
71098;SHT35;58754;47.622;-2.986;2023-05-31T06:10:30;23.15;53.82
71098;SHT35;58754;47.622;-2.986;2023-05-31T06:12:55;23.14;53.82
71098;SHT35;58754;47.622;-2.986;2023-05-31T06:15:22;23.15;53.81
71098;SHT35;58754;47.622;-2.986;2023-05-31T06:17:48;23.14;53.83
71098;SHT35;58754;47.622;-2.986;2023-05-31T06:20:14;23.12;53.84
71098;SHT35;58754;47.622;-2.986;2023-05-31T06:22:41;23.14;53.83
71098;SHT35;58754;47.622;-2.986;2023-05-31T06:25:07;23.11;53.85
71098;SHT35;58754;47.622;-2.986;2023-05-31T06:27:34;23.12;53.81
71098;SHT35;58754;47.622;-2.986;2023-05-31T06:30:00;23.12;53.86
71098;SHT35;58754;47.622;-2.986;2023-05-31T06:32:29;23.11;53.82
71098;SHT35;58754;47.622;-2.986;2023-05-31T06:34:55;23.14;53.83
71098;SHT35;58754;47.622;-2.986;2023-05-31T06:37:21;23.11;53.80
71098;SHT35;58754;47.622;-2.986;2023-05-31T06:39:48;23.12;53.82
71098;SHT35;58754;47.622;-2.986;2023-05-31T06:42:14;23.12;53.85
71098;SHT35;58754;47.622;-2.986;2023-05-31T06:44:42;23.10;53.85
71098;SHT35;58754;47.622;-2.986;2023-05-31T06:47:09;23.10;53.89
71098;SHT35;58754;47.622;-2.986;2023-05-31T06:49:35;23.10;53.85
71098;SHT35;58754;47.622;-2.986;2023-05-31T06:52:01;23.10;53.84
71098;SHT35;58754;47.622;-2.986;2023-05-31T06:54:27;23.10;53.84
71098;SHT35;58754;47.622;-2.986;2023-05-31T06:56:54;23.12;53.87
71098;SHT35;58754;47.622;-2.986;2023-05-31T06:59:20;23.08;53.82
71098;SHT35;58754;47.622;-2.986;2023-05-31T07:01:46;23.10;53.90
71098;SHT35;58754;47.622;-2.986;2023-05-31T07:04:11;23.10;53.86
71098;SHT35;58754;47.622;-2.986;2023-05-31T07:06:37;23.08;53.87
71098;SHT35;58754;47.622;-2.986;2023-05-31T07:09:06;23.10;53.90
71098;SHT35;58754;47.622;-2.986;2023-05-31T07:11:32;23.06;53.83
71098;SHT35;58754;47.622;-2.986;2023-05-31T07:13:58;23.08;53.88
71098;SHT35;58754;47.622;-2.986;2023-05-31T07:16:28;23.08;53.87
71098;SHT35;58754;47.622;-2.986;2023-05-31T07:18:54;23.08;53.86
71098;SHT35;58754;47.622;-2.986;2023-05-31T07:21:20;23.07;53.86
71098;SHT35;58754;47.622;-2.986;2023-05-31T07:23:46;23.07;53.87
71098;SHT35;58754;47.622;-2.986;2023-05-31T07:26:12;23.07;53.86
71098;SHT35;58754;47.622;-2.986;2023-05-31T07:28:38;23.07;53.86
71098;SHT35;58754;47.622;-2.986;2023-05-31T07:31:03;23.07;53.91
71098;SHT35;58754;47.622;-2.986;2023-05-31T07:33:29;23.07;53.83
71098;SHT35;58754;47.622;-2.986;2023-05-31T07:35:59;23.07;53.90
71098;SHT35;58754;47.622;-2.986;2023-05-31T07:38:26;23.04;53.90
71098;SHT35;58754;47.622;-2.986;2023-05-31T07:40:51;23.08;53.91
71098;SHT35;58754;47.622;-2.986;2023-05-31T07:43:17;23.06;53.90
71098;SHT35;58754;47.622;-2.986;2023-05-31T07:45:46;23.06;53.90
71098;SHT35;58754;47.622;-2.986;2023-05-31T07:48:12;23.04;53.89
71098;SHT35;58754;47.622;-2.986;2023-05-31T07:50:37;23.07;53.93
71098;SHT35;58754;47.622;-2.986;2023-05-31T07:53:03;23.06;53.96
71098;SHT35;58754;47.622;-2.986;2023-05-31T07:55:29;23.04;53.92
71098;SHT35;58754;47.622;-2.986;2023-05-31T07:57:54;23.04;53.92
71098;SHT35;58754;47.622;-2.986;2023-05-31T08:00:20;23.04;53.90
71098;SHT35;58754;47.622;-2.986;2023-05-31T08:02:46;23.06;53.88
71098;SHT35;58754;47.622;-2.986;2023-05-31T08:05:13;23.06;53.92
71098;SHT35;58754;47.622;-2.986;2023-05-31T08:07:38;23.06;53.93
71098;SHT35;58754;47.622;-2.986;2023-05-31T08:10:04;23.06;53.88
71098;SHT35;58754;47.622;-2.986;2023-05-31T08:12:31;23.04;53.88
71098;SHT35;58754;47.622;-2.986;2023-05-31T08:14:56;23.06;53.89
71098;SHT35;58754;47.622;-2.986;2023-05-31T08:17:23;23.06;53.90
71098;SHT35;58754;47.622;-2.986;2023-05-31T08:19:48;23.01;53.90
71098;SHT35;58754;47.622;-2.986;2023-05-31T08:22:14;23.06;53.87
71098;SHT35;58754;47.622;-2.986;2023-05-31T08:24:40;23.04;53.90
71098;SHT35;58754;47.622;-2.986;2023-05-31T08:27:06;23.03;53.89
71098;SHT35;58754;47.622;-2.986;2023-05-31T08:29:33;23.06;53.93
71098;SHT35;58754;47.622;-2.986;2023-05-31T08:31:59;23.04;53.85
71098;SHT35;58754;47.622;-2.986;2023-05-31T08:34:25;23.08;53.93
71098;SHT35;58754;47.622;-2.986;2023-05-31T08:36:51;23.03;53.88
71098;SHT35;58754;47.622;-2.986;2023-05-31T08:39:17;23.04;53.90
71098;SHT35;58754;47.622;-2.986;2023-05-31T08:41:59;23.04;53.93
71098;SHT35;58754;47.622;-2.986;2023-05-31T08:44:28;23.07;53.82
71098;SHT35;58754;47.622;-2.986;2023-05-31T08:47:00;23.04;53.92
71098;SHT35;58754;47.622;-2.986;2023-05-31T08:49:30;23.07;53.87
71098;SHT35;58754;47.622;-2.986;2023-05-31T08:51:58;23.04;53.87
71098;SHT35;58754;47.622;-2.986;2023-05-31T08:54:24;23.04;53.87
71098;SHT35;58754;47.622;-2.986;2023-05-31T08:56:50;23.04;53.83
71098;SHT35;58754;47.622;-2.986;2023-05-31T08:59:17;23.04;53.85
71098;SHT35;58754;47.622;-2.986;2023-05-31T09:01:44;23.04;53.89
71098;SHT35;58754;47.622;-2.986;2023-05-31T09:04:12;23.04;53.87
71098;SHT35;58754;47.622;-2.986;2023-05-31T09:06:40;23.07;53.89
71098;SHT35;58754;47.622;-2.986;2023-05-31T09:09:06;23.04;53.87
71098;SHT35;58754;47.622;-2.986;2023-05-31T09:11:35;23.06;53.91
71098;SHT35;58754;47.622;-2.986;2023-05-31T09:14:07;23.03;53.84
71098;SHT35;58754;47.622;-2.986;2023-05-31T09:16:34;23.06;53.87
71098;SHT35;58754;47.622;-2.986;2023-05-31T09:19:02;23.04;53.91
71098;SHT35;58754;47.622;-2.986;2023-05-31T09:21:28;23.03;53.84
71098;SHT35;58754;47.622;-2.986;2023-05-31T09:23:56;23.04;53.87
71098;SHT35;58754;47.622;-2.986;2023-05-31T09:26:23;23.06;53.82
71098;SHT35;58754;47.622;-2.986;2023-05-31T09:28:53;23.04;53.84
71098;SHT35;58754;47.622;-2.986;2023-05-31T09:31:20;23.03;53.84
71098;SHT35;58754;47.622;-2.986;2023-05-31T09:33:47;23.04;53.88
71098;SHT35;58754;47.622;-2.986;2023-05-31T09:36:14;23.04;53.85
71098;SHT35;58754;47.622;-2.986;2023-05-31T09:38:48;23.04;53.84
71098;SHT35;58754;47.622;-2.986;2023-05-31T09:41:19;23.04;53.87
71098;SHT35;58754;47.622;-2.986;2023-05-31T09:43:47;23.04;53.84
71098;SHT35;58754;47.622;-2.986;2023-05-31T09:46:15;23.07;53.87
71098;SHT35;58754;47.622;-2.986;2023-05-31T09:48:41;23.07;53.88
71098;SHT35;58754;47.622;-2.986;2023-05-31T09:51:08;23.07;53.81
71098;SHT35;58754;47.622;-2.986;2023-05-31T09:53:42;23.06;53.83
71098;SHT35;58754;47.622;-2.986;2023-05-31T09:56:10;23.07;53.83
71098;SHT35;58754;47.622;-2.986;2023-05-31T09:58:36;23.07;53.82
71098;SHT35;58754;47.622;-2.986;2023-05-31T10:01:02;23.06;53.82
71098;SHT35;58754;47.622;-2.986;2023-05-31T10:03:28;23.03;53.79
71098;SHT35;58754;47.622;-2.986;2023-05-31T10:05:54;23.07;53.82
71098;SHT35;58754;47.622;-2.986;2023-05-31T10:08:22;23.03;53.82
71098;SHT35;58754;47.622;-2.986;2023-05-31T10:10:48;23.06;53.83
71098;SHT35;58754;47.622;-2.986;2023-05-31T10:13:17;23.07;53.83
71098;SHT35;58754;47.622;-2.986;2023-05-31T10:15:46;23.08;53.82
71098;SHT35;58754;47.622;-2.986;2023-05-31T10:18:15;23.10;53.79
71098;SHT35;58754;47.622;-2.986;2023-05-31T10:21:08;23.10;53.85
71098;SHT35;58754;47.622;-2.986;2023-05-31T10:23:43;23.10;53.83
71098;SHT35;58754;47.622;-2.986;2023-05-31T10:26:14;23.07;53.83
71098;SHT35;58754;47.622;-2.986;2023-05-31T10:29:07;23.08;53.85
71098;SHT35;58754;47.622;-2.986;2023-05-31T10:31:49;23.08;53.86
71098;SHT35;58754;47.622;-2.986;2023-05-31T10:34:23;23.08;53.84
71098;SHT35;58754;47.622;-2.986;2023-05-31T10:36:53;23.07;53.82
71098;SHT35;58754;47.622;-2.986;2023-05-31T10:42:14;23.07;53.86
71098;SHT35;58754;47.622;-2.986;2023-05-31T10:44:50;23.11;53.88
71098;SHT35;58754;47.622;-2.986;2023-05-31T10:47:24;23.10;53.90
71098;SHT35;58754;47.622;-2.986;2023-05-31T10:49:53;23.10;53.86
71098;SHT35;58754;47.622;-2.986;2023-05-31T10:52:20;23.10;53.86
71098;SHT35;58754;47.622;-2.986;2023-05-31T10:54:46;23.12;53.85
71098;SHT35;58754;47.622;-2.986;2023-05-31T10:57:12;23.10;53.90
71098;SHT35;58754;47.622;-2.986;2023-05-31T10:59:42;23.12;53.88
71098;SHT35;58754;47.622;-2.986;2023-05-31T11:02:10;23.11;53.87
71098;SHT35;58754;47.622;-2.986;2023-05-31T11:04:37;23.14;53.89
71098;SHT35;58754;47.622;-2.986;2023-05-31T11:07:18;23.10;53.92
71098;SHT35;58754;47.622;-2.986;2023-05-31T11:09:57;23.14;53.93
71098;SHT35;58754;47.622;-2.986;2023-05-31T11:12:35;23.14;53.93
71098;SHT35;58754;47.622;-2.986;2023-05-31T11:15:03;23.15;53.92
71098;SHT35;58754;47.622;-2.986;2023-05-31T11:17:38;23.15;53.92
71098;SHT35;58754;47.622;-2.986;2023-05-31T11:20:05;23.12;53.92
71098;SHT35;58754;47.622;-2.986;2023-05-31T11:22:31;23.12;53.95
71098;SHT35;58754;47.622;-2.986;2023-05-31T11:24:57;23.18;54.00
71098;SHT35;58754;47.622;-2.986;2023-05-31T11:27:39;23.15;54.00
71098;SHT35;58754;47.622;-2.986;2023-05-31T11:30:17;23.15;53.99
71098;SHT35;58754;47.622;-2.986;2023-05-31T11:35:18;23.18;54.03
71098;SHT35;58754;47.622;-2.986;2023-05-31T11:37:43;23.17;54.03
71098;SHT35;58754;47.622;-2.986;2023-05-31T11:40:12;23.14;54.06
71098;SHT35;58754;47.622;-2.986;2023-05-31T11:42:39;23.21;54.09
71098;SHT35;58754;47.622;-2.986;2023-05-31T11:45:07;23.17;54.06
71098;SHT35;58754;47.622;-2.986;2023-05-31T11:50:06;23.18;54.12
71098;SHT35;58754;47.622;-2.986;2023-05-31T11:52:32;23.19;54.09
71098;SHT35;58754;47.622;-2.986;2023-05-31T11:55:04;23.18;54.10
71098;SHT35;58754;47.622;-2.986;2023-05-31T11:57:31;23.18;54.12
71098;SHT35;58754;47.622;-2.986;2023-05-31T12:00:05;23.15;54.19
71098;SHT35;58754;47.622;-2.986;2023-05-31T12:02:44;23.18;54.10
71098;SHT35;58754;47.622;-2.986;2023-05-31T12:05:14;23.19;54.15
71098;SHT35;58754;47.622;-2.986;2023-05-31T12:07:44;23.21;54.19
71098;SHT35;58754;47.622;-2.986;2023-05-31T12:10:10;23.21;54.14
71098;SHT35;58754;47.622;-2.986;2023-05-31T12:12:38;23.19;54.15
71098;SHT35;58754;47.622;-2.986;2023-05-31T12:15:06;23.22;54.16
71098;SHT35;58754;47.622;-2.986;2023-05-31T12:17:32;23.21;54.18
71098;SHT35;58754;47.622;-2.986;2023-05-31T12:19:58;23.22;54.18
71098;SHT35;58754;47.622;-2.986;2023-05-31T12:22:24;23.21;54.15
71098;SHT35;58754;47.622;-2.986;2023-05-31T12:24:51;23.22;54.19
71098;SHT35;58754;47.622;-2.986;2023-05-31T12:27:22;23.22;54.18
71098;SHT35;58754;47.622;-2.986;2023-05-31T12:29:48;23.25;54.24
71098;SHT35;58754;47.622;-2.986;2023-05-31T12:32:13;23.24;54.22
71098;SHT35;58754;47.622;-2.986;2023-05-31T12:34:42;23.24;54.22
71098;SHT35;58754;47.622;-2.986;2023-05-31T12:37:10;23.24;54.25
71098;SHT35;58754;47.622;-2.986;2023-05-31T12:39:36;23.25;54.28
71098;SHT35;58754;47.622;-2.986;2023-05-31T12:42:04;23.22;54.24
71098;SHT35;58754;47.622;-2.986;2023-05-31T12:44:32;23.25;54.27
71098;SHT35;58754;47.622;-2.986;2023-05-31T12:47:00;23.25;54.28
71098;SHT35;58754;47.622;-2.986;2023-05-31T12:49:27;23.25;54.33
71098;SHT35;58754;47.622;-2.986;2023-05-31T12:52:00;23.25;54.30
71098;SHT35;58754;47.622;-2.986;2023-05-31T12:54:33;23.29;54.31
71098;SHT35;58754;47.622;-2.986;2023-05-31T12:57:01;23.26;54.31
71098;SHT35;58754;47.622;-2.986;2023-05-31T12:59:28;23.26;54.32
71098;SHT35;58754;47.622;-2.986;2023-05-31T13:02:00;23.26;54.33
71098;SHT35;58754;47.622;-2.986;2023-05-31T13:04:27;23.26;54.30
71098;SHT35;58754;47.622;-2.986;2023-05-31T13:06:53;23.29;54.33
71098;SHT35;58754;47.622;-2.986;2023-05-31T13:09:19;23.28;54.34
71098;SHT35;58754;47.622;-2.986;2023-05-31T13:11:45;23.29;54.38
71098;SHT35;58754;47.622;-2.986;2023-05-31T13:14:16;23.28;54.32
71098;SHT35;58754;47.622;-2.986;2023-05-31T13:16:42;23.29;54.36
71098;SHT35;58754;47.622;-2.986;2023-05-31T13:19:08;23.29;54.34
71098;SHT35;58754;47.622;-2.986;2023-05-31T13:21:35;23.29;54.32
71098;SHT35;58754;47.622;-2.986;2023-05-31T13:24:02;23.29;54.35
71098;SHT35;58754;47.622;-2.986;2023-05-31T13:26:28;23.29;54.32
71098;SHT35;58754;47.622;-2.986;2023-05-31T13:28:58;23.31;54.32
71098;SHT35;58754;47.622;-2.986;2023-05-31T13:31:26;23.32;54.33
71098;SHT35;58754;47.622;-2.986;2023-05-31T13:33:53;23.31;54.35
71098;SHT35;58754;47.622;-2.986;2023-05-31T13:36:21;23.31;54.33
71098;SHT35;58754;47.622;-2.986;2023-05-31T13:38:48;23.32;54.34
71098;SHT35;58754;47.622;-2.986;2023-05-31T13:41:14;23.34;54.31
71098;SHT35;58754;47.622;-2.986;2023-05-31T13:43:41;23.32;54.33
71098;SHT35;58754;47.622;-2.986;2023-05-31T13:46:07;23.34;54.36
71098;SHT35;58754;47.622;-2.986;2023-05-31T13:48:40;23.32;54.33
71098;SHT35;58754;47.622;-2.986;2023-05-31T13:51:06;23.35;54.31
71098;SHT35;58754;47.622;-2.986;2023-05-31T13:53:32;23.32;54.33
71098;SHT35;58754;47.622;-2.986;2023-05-31T13:55:58;23.34;54.32
71098;SHT35;58754;47.622;-2.986;2023-05-31T13:58:24;23.35;54.33
71098;SHT35;58754;47.622;-2.986;2023-05-31T14:00:50;23.34;54.32
71098;SHT35;58754;47.622;-2.986;2023-05-31T14:03:16;23.32;54.39
71098;SHT35;58754;47.622;-2.986;2023-05-31T14:05:43;23.37;54.37
71098;SHT35;58754;47.622;-2.986;2023-05-31T14:08:11;23.35;54.43
71098;SHT35;58754;47.622;-2.986;2023-05-31T14:10:36;23.34;54.42
71098;SHT35;58754;47.622;-2.986;2023-05-31T14:13:04;23.35;54.41
71098;SHT35;58754;47.622;-2.986;2023-05-31T14:15:30;23.35;54.40
71098;SHT35;58754;47.622;-2.986;2023-05-31T14:17:56;23.37;54.43
71098;SHT35;58754;47.622;-2.986;2023-05-31T14:20:22;23.37;54.43
71098;SHT35;58754;47.622;-2.986;2023-05-31T14:22:47;23.38;54.46
71098;SHT35;58754;47.622;-2.986;2023-05-31T14:25:13;23.38;54.43
71098;SHT35;58754;47.622;-2.986;2023-05-31T14:27:39;23.39;54.46
71098;SHT35;58754;47.622;-2.986;2023-05-31T14:30:06;23.35;54.49
71098;SHT35;58754;47.622;-2.986;2023-05-31T14:32:32;23.41;54.54
71098;SHT35;58754;47.622;-2.986;2023-05-31T14:34:57;23.39;54.55
71098;SHT35;58754;47.622;-2.986;2023-05-31T14:37:23;23.39;54.56
71098;SHT35;58754;47.622;-2.986;2023-05-31T14:39:49;23.38;54.58
71098;SHT35;58754;47.622;-2.986;2023-05-31T14:42:15;23.41;54.56
71098;SHT35;58754;47.622;-2.986;2023-05-31T14:44:41;23.39;54.56
71098;SHT35;58754;47.622;-2.986;2023-05-31T14:47:07;23.39;54.56
71098;SHT35;58754;47.622;-2.986;2023-05-31T14:49:32;23.39;54.56
71098;SHT35;58754;47.622;-2.986;2023-05-31T14:51:59;23.42;54.62
71098;SHT35;58754;47.622;-2.986;2023-05-31T14:54:24;23.43;54.62
71098;SHT35;58754;47.622;-2.986;2023-05-31T14:56:50;23.43;54.63
71098;SHT35;58754;47.622;-2.986;2023-05-31T14:59:17;23.45;54.62
71098;SHT35;58754;47.622;-2.986;2023-05-31T15:01:43;23.43;54.68
71098;SHT35;58754;47.622;-2.986;2023-05-31T15:04:10;23.43;54.67
71098;SHT35;58754;47.622;-2.986;2023-05-31T15:06:36;23.42;54.66
71098;SHT35;58754;47.622;-2.986;2023-05-31T15:09:02;23.45;54.69
71098;SHT35;58754;47.622;-2.986;2023-05-31T15:11:28;23.45;54.74
71098;SHT35;58754;47.622;-2.986;2023-05-31T15:13:54;23.45;54.76
71098;SHT35;58754;47.622;-2.986;2023-05-31T15:16:22;23.46;54.70
71098;SHT35;58754;47.622;-2.986;2023-05-31T15:18:49;23.45;54.78
71098;SHT35;58754;47.622;-2.986;2023-05-31T15:21:16;23.46;54.73
71098;SHT35;58754;47.622;-2.986;2023-05-31T15:23:41;23.46;54.78
71098;SHT35;58754;47.622;-2.986;2023-05-31T15:26:07;23.48;54.85